Rockdale, Texas
Current Conditions -  °F | °C
As of 2:15 AM on Monday 26 Jan 2015 (Local Time) from KT35 Reporting Station
Clear Clear  
Wind Chill:   Ceiling: Unl
Heat Index:   Visibility: 10mi
Dew Point:   Wind: 5mph
Humidity: 63%   Direction: 290°WNW
Pressure: 30.21"   Gusts: NA
Location:  30.66°N, 97°W
Report Text: KT35 260815Z AUTO 29004KT 10SM CLR 07/01 A3021 RMK AO2 T00730007
Loading
Personal Weather Stations






























Interactive Weather Map New forecast layout! Learn more

10-Day Weather Forecast

Advertisements
Track Severe Weather on mobile